Time;durP1;ratioP1;P1;durP2;ratioP2;P2;SDS_P1;SDS_P2;PMS_P1;PMS_P2;Temp;Humidity;BMP_temperature;BMP_pressure;BME280_temperature;BME280_humidity;BME280_pressure;Samples;Min_cycle;Max_cycle;Signal;HPM_P1;HPM_P2
2024/02/19 00:02:49;;;;;;;8.23;7.53;;;12.10;42.20;;;;;;10439365;28;20648;-76
2024/02/19 00:07:53;;;;;;;8.40;7.60;;;12.00;42.40;;;;;;10439051;28;20235;-76
2024/02/19 00:12:57;;;;;;;8.00;7.20;;;11.90;42.80;;;;;;10435712;28;20633;-76
2024/02/19 00:18:00;;;;;;;7.50;6.80;;;11.90;42.20;;;;;;10440990;28;20221;-76
2024/02/19 00:23:05;;;;;;;7.30;6.70;;;11.80;42.70;;;;;;10434849;28;20648;-76
2024/02/19 00:28:10;;;;;;;6.40;5.80;;;11.80;43.00;;;;;;10440269;28;20245;-76
2024/02/19 00:33:13;;;;;;;5.90;5.40;;;11.80;42.80;;;;;;10438390;28;20322;-76
2024/02/19 00:38:19;;;;;;;5.03;4.63;;;11.80;42.50;;;;;;10427677;28;20632;-76
2024/02/19 00:43:22;;;;;;;4.77;4.20;;;11.70;43.00;;;;;;10431562;28;20259;-76
2024/02/19 00:48:26;;;;;;;4.30;3.90;;;11.70;42.90;;;;;;10440308;28;20285;-76
2024/02/19 00:53:30;;;;;;;4.33;3.93;;;11.70;42.80;;;;;;10435158;28;20239;-76
2024/02/19 00:58:33;;;;;;;3.73;3.43;;;11.70;43.20;;;;;;10436044;28;20309;-76
2024/02/19 01:03:37;;;;;;;4.13;3.40;;;11.70;42.90;;;;;;10433925;28;20232;-76
2024/02/19 01:08:42;;;;;;;3.67;3.37;;;11.60;43.10;;;;;;10442139;28;20897;-76
2024/02/19 01:13:45;;;;;;;3.63;3.30;;;11.60;44.00;;;;;;10436911;28;20237;-76
2024/02/19 01:18:48;;;;;;;3.20;2.90;;;11.50;43.50;;;;;;10431841;28;20298;-76
2024/02/19 01:23:53;;;;;;;3.20;2.90;;;11.50;43.40;;;;;;10435200;28;20597;-76
2024/02/19 01:28:57;;;;;;;3.30;3.00;;;11.50;43.80;;;;;;10432854;28;20258;-76
2024/02/19 01:34:04;;;;;;;3.10;2.80;;;11.60;43.50;;;;;;10438825;28;20707;-77
2024/02/19 01:39:09;;;;;;;2.83;2.63;;;11.50;43.30;;;;;;10434555;28;20730;-76
2024/02/19 01:44:12;;;;;;;3.00;2.80;;;11.60;43.70;;;;;;10435683;28;20228;-76
2024/02/19 01:49:16;;;;;;;2.50;2.30;;;11.70;43.60;;;;;;10436363;28;20225;-76
2024/02/19 01:54:20;;;;;;;2.57;2.37;;;11.70;43.40;;;;;;10432071;28;20224;-76
2024/02/19 01:59:26;;;;;;;2.50;2.30;;;11.70;43.70;;;;;;10436910;28;20651;-76
2024/02/19 02:04:30;;;;;;;2.30;2.17;;;11.70;43.80;;;;;;10439283;28;20233;-76
2024/02/19 02:09:35;;;;;;;2.03;1.93;;;11.70;43.40;;;;;;10438218;28;20332;-76
2024/02/19 02:14:39;;;;;;;2.20;2.10;;;11.70;44.10;;;;;;10439036;28;20229;-76
2024/02/19 02:19:43;;;;;;;2.20;2.00;;;11.60;43.60;;;;;;10431156;28;20316;-77
2024/02/19 02:24:48;;;;;;;2.20;2.10;;;11.50;43.70;;;;;;10436315;28;20279;-76
2024/02/19 02:29:54;;;;;;;2.43;2.23;;;11.50;44.60;;;;;;10438122;28;20261;-76
2024/02/19 02:34:57;;;;;;;2.60;2.20;;;11.50;44.50;;;;;;10435735;28;20243;-76
2024/02/19 02:40:00;;;;;;;2.23;2.10;;;11.50;44.00;;;;;;10432391;28;20243;-76
2024/02/19 02:45:05;;;;;;;2.47;2.20;;;11.50;44.10;;;;;;10434128;28;20287;-76
2024/02/19 02:50:09;;;;;;;1.93;1.53;;;11.40;44.80;;;;;;10435202;28;20240;-76
2024/02/19 02:55:12;;;;;;;1.70;1.60;;;11.50;44.20;;;;;;10430995;28;20714;-76
2024/02/19 03:00:18;;;;;;;1.80;1.70;;;11.40;44.10;;;;;;10433957;28;20944;-76
2024/02/19 03:05:21;;;;;;;1.50;1.40;;;11.40;44.90;;;;;;10435993;28;25855;-76
2024/02/19 03:10:24;;;;;;;1.57;1.47;;;11.40;44.40;;;;;;10439885;28;20233;-76
2024/02/19 03:15:29;;;;;;;1.87;1.30;;;11.50;44.30;;;;;;10439326;28;20233;-76
2024/02/19 03:20:32;;;;;;;1.23;1.10;;;11.50;44.70;;;;;;10443601;28;20239;-77
2024/02/19 03:25:35;;;;;;;1.47;1.37;;;11.50;44.30;;;;;;10442768;28;20229;-77
2024/02/19 03:30:40;;;;;;;1.33;1.23;;;11.50;45.00;;;;;;10440939;28;20309;-76
2024/02/19 03:35:43;;;;;;;1.60;1.50;;;11.50;44.80;;;;;;10433415;28;20233;-76
2024/02/19 03:40:48;;;;;;;2.27;1.23;;;11.50;44.60;;;;;;10441310;28;20283;-76
2024/02/19 03:45:54;;;;;;;1.50;1.40;;;11.50;44.60;;;;;;10441090;28;20233;-76
2024/02/19 03:50:58;;;;;;;2.47;1.27;;;11.40;45.90;;;;;;10439855;28;20602;-76
2024/02/19 03:56:01;;;;;;;1.00;1.00;;;11.40;44.80;;;;;;10442202;28;20589;-75
2024/02/19 04:01:06;;;;;;;1.20;1.10;;;11.40;44.70;;;;;;10437534;28;20229;-77
2024/02/19 04:06:10;;;;;;;0.90;0.90;;;11.40;45.50;;;;;;10436652;28;20233;-76
2024/02/19 04:11:16;;;;;;;1.87;0.90;;;11.40;45.00;;;;;;10438747;28;20255;-76
2024/02/19 04:16:20;;;;;;;1.00;1.00;;;11.30;45.90;;;;;;10442066;28;20239;-76
2024/02/19 04:21:24;;;;;;;0.90;0.90;;;11.30;45.60;;;;;;10441103;28;20600;-76
2024/02/19 04:26:27;;;;;;;0.90;0.90;;;11.40;45.20;;;;;;10440080;28;20237;-76
2024/02/19 04:31:31;;;;;;;0.90;0.90;;;11.30;45.00;;;;;;10438531;28;20246;-76
2024/02/19 04:36:35;;;;;;;1.10;1.10;;;11.40;45.80;;;;;;10439773;28;20259;-76
2024/02/19 04:41:38;;;;;;;1.00;1.00;;;11.30;45.80;;;;;;10436591;28;20711;-76
2024/02/19 04:46:43;;;;;;;0.80;0.80;;;11.30;45.20;;;;;;10437939;28;20683;-77
2024/02/19 04:51:46;;;;;;;0.90;0.90;;;11.30;45.80;;;;;;10437550;28;20275;-76
2024/02/19 04:56:49;;;;;;;0.90;0.90;;;11.40;45.50;;;;;;10435312;28;20255;-76
2024/02/19 05:01:55;;;;;;;0.90;0.90;;;11.30;45.40;;;;;;10440623;28;20220;-75
2024/02/19 05:06:58;;;;;;;1.00;1.00;;;11.40;45.90;;;;;;10434120;28;20227;-76
2024/02/19 05:12:01;;;;;;;1.33;1.23;;;11.40;45.20;;;;;;10433881;28;20781;-76
2024/02/19 05:17:07;;;;;;;1.33;1.00;;;11.40;45.20;;;;;;10434420;28;20696;-76
2024/02/19 05:22:11;;;;;;;1.20;1.20;;;11.40;45.70;;;;;;10434307;28;20213;-76
2024/02/19 05:27:14;;;;;;;2.50;1.00;;;11.50;45.40;;;;;;10438392;28;20225;-76
2024/02/19 05:32:19;;;;;;;1.53;1.40;;;11.50;45.20;;;;;;10435553;28;20237;-76
2024/02/19 05:37:22;;;;;;;1.60;1.50;;;11.50;45.70;;;;;;10434443;28;20233;-76
2024/02/19 05:42:26;;;;;;;1.83;1.53;;;11.50;45.30;;;;;;10438608;28;20236;-75
2024/02/19 05:47:30;;;;;;;1.30;1.20;;;11.50;45.50;;;;;;10443200;28;20233;-76
2024/02/19 05:52:34;;;;;;;1.53;1.20;;;11.50;46.00;;;;;;10438662;28;20236;-77
2024/02/19 05:57:38;;;;;;;1.17;1.10;;;11.60;45.40;;;;;;10441098;28;20237;-76
2024/02/19 06:02:43;;;;;;;1.20;1.20;;;11.50;45.20;;;;;;10437015;28;20642;-76
2024/02/19 06:07:46;;;;;;;1.73;1.63;;;11.60;45.80;;;;;;10439090;28;20602;-76
2024/02/19 06:12:50;;;;;;;1.57;1.47;;;11.60;45.30;;;;;;10447894;28;20213;-77
2024/02/19 06:17:55;;;;;;;1.60;1.50;;;11.60;45.30;;;;;;10444523;28;20224;-76
2024/02/19 06:22:59;;;;;;;1.37;1.27;;;11.50;45.80;;;;;;10445206;28;20296;-77
2024/02/19 06:28:03;;;;;;;1.57;1.47;;;11.60;45.50;;;;;;10451218;28;20315;-75
2024/02/19 06:33:10;;;;;;;1.13;1.10;;;11.50;45.30;;;;;;10451088;28;20225;-76
2024/02/19 06:38:13;;;;;;;1.23;1.13;;;11.50;45.70;;;;;;10424886;28;20232;-77
2024/02/19 06:43:18;;;;;;;1.10;1.10;;;11.50;46.10;;;;;;10441447;28;20308;-76
2024/02/19 06:48:23;;;;;;;2.03;1.53;;;11.50;45.50;;;;;;10443803;28;20248;-77
2024/02/19 06:53:26;;;;;;;1.50;1.40;;;11.50;45.90;;;;;;10441751;28;20703;-77
2024/02/19 06:58:29;;;;;;;1.90;1.30;;;11.60;45.50;;;;;;10449523;28;20241;-76
2024/02/19 07:03:35;;;;;;;2.50;1.80;;;11.50;45.50;;;;;;10447094;28;20619;-76
2024/02/19 07:08:38;;;;;;;1.50;1.40;;;11.60;46.00;;;;;;10444797;28;20267;-77
2024/02/19 07:13:42;;;;;;;1.97;1.53;;;11.60;45.70;;;;;;10445828;28;20216;-77
2024/02/19 07:18:47;;;;;;;1.63;1.53;;;11.60;45.80;;;;;;10443828;28;20336;-76
2024/02/19 07:23:51;;;;;;;1.50;1.40;;;11.60;46.10;;;;;;10440583;28;20221;-76
2024/02/19 07:28:54;;;;;;;1.77;1.60;;;11.60;45.70;;;;;;10438592;28;20232;-76
2024/02/19 07:33:59;;;;;;;1.83;1.73;;;11.70;45.90;;;;;;10435938;28;20304;-76
2024/02/19 07:39:03;;;;;;;1.60;1.50;;;11.70;46.20;;;;;;10431914;28;20707;-75
2024/02/19 07:44:06;;;;;;;1.40;1.30;;;11.70;45.90;;;;;;10438700;28;20649;-75
2024/02/19 07:49:11;;;;;;;1.60;1.50;;;11.80;46.00;;;;;;10437912;28;20229;-76
2024/02/19 07:54:14;;;;;;;1.60;1.50;;;11.80;46.30;;;;;;10438761;28;20248;-75
2024/02/19 07:59:18;;;;;;;2.37;1.57;;;11.80;45.80;;;;;;10436822;28;20229;-76
2024/02/19 08:04:27;;;;;;;1.70;1.60;;;11.80;45.90;;;;;;10438282;28;20578;-75
2024/02/19 08:09:31;;;;;;;1.60;1.50;;;11.80;46.30;;;;;;10445535;28;20229;-76
2024/02/19 08:14:35;;;;;;;2.07;1.63;;;11.90;45.90;;;;;;10433688;28;20233;-76
2024/02/19 08:19:39;;;;;;;1.63;1.53;;;11.90;45.90;;;;;;10442306;28;20757;-76
2024/02/19 08:24:43;;;;;;;1.73;1.63;;;12.00;46.00;;;;;;10435744;28;20283;-76
2024/02/19 08:29:46;;;;;;;1.50;1.40;;;12.10;45.80;;;;;;10440085;28;20287;-75
2024/02/19 08:34:50;;;;;;;1.80;1.70;;;12.10;46.50;;;;;;10441730;28;20225;-76
2024/02/19 08:39:54;;;;;;;3.17;2.47;;;12.20;46.00;;;;;;10437298;28;20336;-76
2024/02/19 08:44:57;;;;;;;2.27;2.10;;;12.20;45.40;;;;;;10440661;28;20278;-76
2024/02/19 08:50:02;;;;;;;1.60;1.50;;;12.30;45.20;;;;;;10434481;28;20224;-76
2024/02/19 08:55:06;;;;;;;1.83;1.73;;;12.30;45.30;;;;;;10428926;28;20761;-75
2024/02/19 09:00:11;;;;;;;1.53;1.40;;;12.30;45.20;;;;;;10443927;28;20220;-75
2024/02/19 09:05:17;;;;;;;1.73;1.63;;;12.30;45.30;;;;;;10473588;28;20592;-76
2024/02/19 09:10:20;;;;;;;3.47;1.77;;;12.30;45.20;;;;;;10444635;28;20289;-76
2024/02/19 09:15:25;;;;;;;1.70;1.60;;;12.30;45.00;;;;;;10443415;28;20227;-76
2024/02/19 09:20:30;;;;;;;2.43;1.90;;;12.30;44.90;;;;;;10442510;28;20233;-76
2024/02/19 09:25:33;;;;;;;2.37;1.97;;;12.30;44.90;;;;;;10437634;28;20243;-76
2024/02/19 09:30:36;;;;;;;1.93;1.40;;;12.30;44.80;;;;;;10432432;28;20235;-77
2024/02/19 09:35:41;;;;;;;1.50;1.40;;;12.40;44.40;;;;;;10428317;28;20220;-77
2024/02/19 09:40:49;;;;;;;1.67;1.57;;;12.40;44.40;;;;;;10421484;28;20316;-77
2024/02/19 09:45:52;;;;;;;2.30;1.30;;;12.30;44.10;;;;;;10422598;28;20303;-77
2024/02/19 09:51:01;;;;;;;1.93;1.57;;;12.30;43.80;;;;;;10425050;28;20233;-76
2024/02/19 09:56:06;;;;;;;1.40;1.30;;;12.20;43.50;;;;;;10429022;28;20271;-77
2024/02/19 10:01:10;;;;;;;3.77;1.80;;;12.20;44.10;;;;;;10419875;28;20213;-76
2024/02/19 10:06:14;;;;;;;1.97;1.60;;;12.30;44.80;;;;;;10424796;28;20222;-79
2024/02/19 10:11:18;;;;;;;2.97;1.50;;;12.50;44.10;;;;;;10429121;28;20531;-79
2024/02/19 10:16:22;;;;;;;2.60;1.50;;;12.70;44.30;;;;;;10434559;28;20241;-79
2024/02/19 10:21:27;;;;;;;1.60;1.50;;;12.80;43.10;;;;;;10447468;28;20233;-77
2024/02/19 10:26:30;;;;;;;1.73;1.10;;;12.90;42.50;;;;;;10439462;28;20233;-78
2024/02/19 10:31:33;;;;;;;3.50;1.50;;;12.80;43.10;;;;;;10430761;28;20313;-77
2024/02/19 10:36:38;;;;;;;1.30;1.10;;;12.90;42.50;;;;;;10440883;28;20228;-77
2024/02/19 10:41:41;;;;;;;3.20;1.60;;;13.00;42.60;;;;;;10429116;28;20857;-76
2024/02/19 10:46:45;;;;;;;1.60;1.10;;;13.20;42.70;;;;;;10416457;28;20236;-76
2024/02/19 10:51:51;;;;;;;1.10;1.00;;;13.30;42.80;;;;;;10434662;28;20804;-76
2024/02/19 10:57:06;;;;;;;1.70;1.20;;;13.50;41.60;;;;;;10437523;28;20236;-75
2024/02/19 11:02:11;;;;;;;1.90;1.13;;;13.70;38.90;;;;;;10442751;28;20324;-76
2024/02/19 11:07:17;;;;;;;1.40;1.10;;;13.80;40.40;;;;;;10436186;28;20229;-76
2024/02/19 11:12:21;;;;;;;2.60;1.27;;;13.90;39.60;;;;;;10442708;28;20270;-78
2024/02/19 11:17:25;;;;;;;1.43;1.00;;;13.80;37.20;;;;;;10444934;28;20286;-77
2024/02/19 11:22:30;;;;;;;1.60;1.10;;;13.70;37.10;;;;;;10448656;28;20636;-78
2024/02/19 11:27:33;;;;;;;1.40;1.00;;;13.50;36.10;;;;;;10442355;28;20523;-78
2024/02/19 11:32:38;;;;;;;0.80;0.80;;;13.40;37.90;;;;;;10443818;28;20578;-78
2024/02/19 11:37:44;;;;;;;2.10;1.30;;;13.40;38.30;;;;;;10440788;28;20269;-77
2024/02/19 11:42:48;;;;;;;2.07;1.10;;;13.40;37.60;;;;;;10438766;28;20229;-77
2024/02/19 11:47:52;;;;;;;1.40;1.00;;;13.40;38.10;;;;;;10444689;28;20236;-77
2024/02/19 11:52:58;;;;;;;1.03;0.90;;;13.40;38.10;;;;;;10446149;28;20251;-77
2024/02/19 11:58:05;;;;;;;1.50;1.00;;;13.30;37.80;;;;;;10447981;28;20229;-77
2024/02/19 12:03:13;;;;;;;1.10;1.00;;;13.30;38.00;;;;;;10444400;28;20328;-77
2024/02/19 12:08:18;;;;;;;2.47;0.90;;;13.20;38.30;;;;;;10443887;28;20225;-78
2024/02/19 12:13:21;;;;;;;1.37;0.93;;;13.20;38.40;;;;;;10443105;28;20249;-76
2024/02/19 12:18:26;;;;;;;2.43;1.03;;;13.20;38.90;;;;;;10441504;28;20233;-76
2024/02/19 12:23:31;;;;;;;1.67;1.10;;;13.30;39.10;;;;;;10436751;28;20271;-75
2024/02/19 12:28:34;;;;;;;1.20;0.97;;;13.40;38.40;;;;;;10435171;28;20235;-76
2024/02/19 12:33:38;;;;;;;1.00;0.90;;;13.40;37.90;;;;;;10434176;28;20228;-75
2024/02/19 12:38:43;;;;;;;1.73;1.40;;;13.40;37.80;;;;;;10444906;28;20790;-76
2024/02/19 12:43:47;;;;;;;2.83;1.90;;;13.40;36.90;;;;;;10449269;28;20806;-77
2024/02/19 12:48:50;;;;;;;4.50;2.10;;;13.30;37.50;;;;;;10439986;28;20233;-78
2024/02/19 12:53:55;;;;;;;2.40;1.37;;;13.30;37.70;;;;;;10443363;28;20229;-78
2024/02/19 12:58:59;;;;;;;1.53;1.10;;;13.30;37.20;;;;;;10442679;28;20799;-78
2024/02/19 13:04:03;;;;;;;1.97;1.10;;;13.20;37.60;;;;;;10436688;28;20642;-78
2024/02/19 13:09:10;;;;;;;2.17;1.03;;;13.20;38.00;;;;;;10433905;28;20234;-75
2024/02/19 13:14:13;;;;;;;1.20;1.03;;;13.10;37.00;;;;;;10437046;28;20259;-75
2024/02/19 13:19:17;;;;;;;2.67;1.47;;;13.10;37.80;;;;;;10435873;28;20744;-75
2024/02/19 13:24:23;;;;;;;2.20;1.40;;;13.00;37.90;;;;;;10446779;28;20225;-75
2024/02/19 13:29:26;;;;;;;2.27;1.57;;;13.00;37.70;;;;;;10440543;28;20237;-75
2024/02/19 13:34:29;;;;;;;1.37;1.13;;;13.00;38.00;;;;;;10430054;28;20310;-75
2024/02/19 13:39:34;;;;;;;1.10;1.00;;;12.90;38.10;;;;;;10437619;28;20791;-75
2024/02/19 13:44:38;;;;;;;2.57;1.10;;;12.90;38.10;;;;;;10432669;28;20454;-75
2024/02/19 13:49:42;;;;;;;2.30;1.10;;;12.90;38.00;;;;;;10446462;28;20233;-76
2024/02/19 13:54:48;;;;;;;2.97;1.03;;;12.90;38.20;;;;;;10424481;28;20291;-76
2024/02/19 13:59:53;;;;;;;2.33;1.20;;;12.80;38.00;;;;;;10426578;28;20683;-78
2024/02/19 14:04:56;;;;;;;1.63;0.80;;;12.80;38.10;;;;;;10436770;28;20234;-77
2024/02/19 14:10:01;;;;;;;2.23;1.10;;;12.80;39.10;;;;;;10440808;28;20221;-79
2024/02/19 14:15:05;;;;;;;1.77;1.20;;;12.90;38.10;;;;;;10439640;28;20286;-78
2024/02/19 14:20:10;;;;;;;3.47;1.20;;;12.90;38.10;;;;;;10438216;28;20299;-78
2024/02/19 14:25:15;;;;;;;2.43;1.30;;;12.90;38.00;;;;;;10440722;28;20228;-79
2024/02/19 14:30:19;;;;;;;1.93;1.13;;;12.80;38.20;;;;;;10436201;28;20220;-79
2024/02/19 14:35:22;;;;;;;1.60;1.20;;;12.80;38.30;;;;;;10446046;28;20312;-77
2024/02/19 14:40:27;;;;;;;2.73;1.30;;;12.80;38.20;;;;;;10442233;28;20261;-78
2024/02/19 14:45:30;;;;;;;1.87;1.10;;;12.70;38.20;;;;;;10434134;28;20312;-81
2024/02/19 14:50:34;;;;;;;2.20;1.17;;;12.70;38.50;;;;;;10438746;28;20237;-79
2024/02/19 14:55:39;;;;;;;1.93;1.10;;;12.60;38.40;;;;;;10444838;28;20316;-82
2024/02/19 15:00:45;;;;;;;2.07;1.20;;;12.60;38.90;;;;;;10443243;28;20313;-81
2024/02/19 15:05:50;;;;;;;1.40;1.20;;;12.60;38.60;;;;;;10444811;28;20563;-77
2024/02/19 15:10:54;;;;;;;1.50;1.30;;;12.60;38.70;;;;;;10451194;28;20664;-76
2024/02/19 15:15:58;;;;;;;2.60;1.40;;;12.60;38.80;;;;;;10454997;28;20695;-76
2024/02/19 15:21:02;;;;;;;1.67;1.20;;;12.70;38.80;;;;;;10450112;28;20346;-75
2024/02/19 15:26:09;;;;;;;3.50;1.50;;;12.60;38.90;;;;;;10448149;28;20219;-80
2024/02/19 15:31:13;;;;;;;2.93;1.50;;;12.60;39.00;;;;;;10445510;28;20248;-78
2024/02/19 15:36:17;;;;;;;1.10;1.00;;;12.60;39.00;;;;;;10451130;28;20287;-75
2024/02/19 15:41:24;;;;;;;2.83;1.57;;;12.60;39.10;;;;;;10434091;28;20209;-76
2024/02/19 15:46:30;;;;;;;2.47;1.30;;;12.60;38.90;;;;;;10450126;28;20258;-75
2024/02/19 15:51:35;;;;;;;2.87;1.70;;;12.60;38.50;;;;;;10448249;28;20221;-76
2024/02/19 15:56:39;;;;;;;2.60;1.93;;;12.50;38.80;;;;;;10447577;28;20759;-75
2024/02/19 16:01:44;;;;;;;1.70;1.57;;;12.50;38.70;;;;;;10451392;28;20307;-76
2024/02/19 16:06:50;;;;;;;2.53;1.10;;;12.50;38.50;;;;;;10449698;28;20237;-76
2024/02/19 16:11:55;;;;;;;1.50;1.40;;;12.50;38.30;;;;;;10451395;28;20693;-75
2024/02/19 16:16:58;;;;;;;3.67;1.30;;;12.50;38.00;;;;;;10452350;28;20233;-76
2024/02/19 16:22:02;;;;;;;3.40;1.53;;;12.40;38.10;;;;;;10448455;28;20715;-77
2024/02/19 16:27:07;;;;;;;1.90;1.30;;;12.40;38.30;;;;;;10448909;28;20327;-79
2024/02/19 16:32:11;;;;;;;2.40;1.40;;;12.40;38.40;;;;;;10442422;28;21114;-77
2024/02/19 16:37:14;;;;;;;2.03;1.20;;;12.40;38.40;;;;;;10442487;28;20241;-76
2024/02/19 16:42:19;;;;;;;2.07;1.80;;;12.40;38.50;;;;;;10426919;28;20259;-75
2024/02/19 16:47:22;;;;;;;2.53;1.30;;;12.40;38.30;;;;;;10441933;28;20240;-76
2024/02/19 16:52:26;;;;;;;5.13;1.80;;;12.30;38.70;;;;;;10441373;28;20295;-78
2024/02/19 16:57:30;;;;;;;3.30;1.40;;;12.20;38.40;;;;;;10444297;28;20287;-78
2024/02/19 17:02:34;;;;;;;2.33;1.33;;;12.20;38.40;;;;;;10430610;28;20244;-78
2024/02/19 17:07:37;;;;;;;2.07;1.30;;;12.10;38.50;;;;;;10425437;28;20336;-78
2024/02/19 17:12:42;;;;;;;1.50;1.30;;;12.10;38.60;;;;;;10433983;28;20225;-78
2024/02/19 17:17:48;;;;;;;1.63;1.10;;;12.10;38.60;;;;;;10441803;28;20279;-78
2024/02/19 17:22:51;;;;;;;1.30;1.17;;;12.00;38.70;;;;;;10439392;28;20310;-78
2024/02/19 17:27:56;;;;;;;2.03;1.50;;;12.00;38.80;;;;;;10439265;28;20232;-77
2024/02/19 17:32:59;;;;;;;2.87;1.40;;;12.00;38.80;;;;;;10441008;28;20227;-78
2024/02/19 17:38:02;;;;;;;3.50;1.90;;;11.90;38.90;;;;;;10416013;28;20239;-78
2024/02/19 17:43:07;;;;;;;4.70;2.60;;;11.90;38.90;;;;;;10437230;28;20220;-78
2024/02/19 17:48:11;;;;;;;3.60;3.10;;;11.90;38.80;;;;;;10433360;28;20230;-78
2024/02/19 17:53:16;;;;;;;5.07;3.27;;;11.90;38.90;;;;;;10440696;28;20217;-78
2024/02/19 17:58:21;;;;;;;6.23;4.30;;;11.80;38.80;;;;;;10440896;28;20239;-78
2024/02/19 18:03:25;;;;;;;9.73;5.27;;;11.80;39.00;;;;;;10443103;28;20311;-79
2024/02/19 18:08:28;;;;;;;6.70;3.93;;;11.70;39.10;;;;;;10444677;28;20240;-78
2024/02/19 18:13:34;;;;;;;2.90;2.50;;;11.70;39.30;;;;;;10446801;28;20235;-79
2024/02/19 18:18:37;;;;;;;5.03;3.10;;;11.70;39.20;;;;;;10456086;28;20641;-79
2024/02/19 18:23:40;;;;;;;5.90;4.67;;;11.70;39.30;;;;;;10445210;28;20597;-79
2024/02/19 18:28:45;;;;;;;4.23;3.60;;;11.80;39.40;;;;;;10442444;28;20871;-79
2024/02/19 18:33:48;;;;;;;4.73;4.10;;;11.80;39.50;;;;;;10444752;28;20328;-79
2024/02/19 18:38:52;;;;;;;8.10;6.70;;;11.80;39.50;;;;;;10447187;28;20228;-79
2024/02/19 18:44:01;;;;;;;10.90;9.00;;;11.90;39.60;;;;;;10452587;28;20601;-79
2024/02/19 18:49:04;;;;;;;11.30;8.83;;;12.00;39.70;;;;;;10446534;28;20232;-79
2024/02/19 18:54:08;;;;;;;14.03;9.67;;;12.00;39.80;;;;;;10450981;28;20213;-79
2024/02/19 18:59:12;;;;;;;9.93;8.07;;;12.00;39.70;;;;;;10448309;28;20315;-79
2024/02/19 19:04:16;;;;;;;9.50;7.30;;;12.10;40.10;;;;;;10445474;28;20959;-79
2024/02/19 19:09:19;;;;;;;6.87;6.17;;;12.20;40.10;;;;;;10447709;28;20703;-79
2024/02/19 19:14:24;;;;;;;4.70;4.00;;;12.20;40.20;;;;;;10452825;28;20233;-79
2024/02/19 19:19:27;;;;;;;4.63;3.37;;;12.20;40.20;;;;;;10443705;28;20302;-80
2024/02/19 19:24:30;;;;;;;3.57;3.27;;;12.30;40.10;;;;;;10450179;28;20229;-80
2024/02/19 19:29:35;;;;;;;4.43;2.80;;;12.30;40.20;;;;;;10444423;28;20229;-79
2024/02/19 19:34:38;;;;;;;3.57;2.70;;;12.30;40.20;;;;;;10441420;28;20595;-79
2024/02/19 19:39:43;;;;;;;4.87;3.07;;;12.30;40.00;;;;;;10444858;28;20764;-80
2024/02/19 19:44:48;;;;;;;4.80;4.40;;;12.30;40.10;;;;;;10442766;28;20229;-81
2024/02/19 19:49:51;;;;;;;8.40;5.93;;;12.30;40.30;;;;;;10447492;28;20775;-79
2024/02/19 19:54:55;;;;;;;7.67;6.87;;;12.30;40.00;;;;;;10448201;28;20609;-80
2024/02/19 20:00:01;;;;;;;11.40;10.20;;;12.20;40.10;;;;;;10444238;28;20315;-79
2024/02/19 20:05:05;;;;;;;11.20;9.63;;;12.10;40.40;;;;;;10440367;28;20233;-79
2024/02/19 20:10:13;;;;;;;8.87;7.97;;;12.00;40.30;;;;;;10442994;28;20224;-76
2024/02/19 20:15:19;;;;;;;7.70;5.07;;;11.90;40.40;;;;;;10439885;28;20232;-77
2024/02/19 20:20:23;;;;;;;6.37;3.93;;;11.90;40.70;;;;;;10440161;28;20236;-77
2024/02/19 20:25:26;;;;;;;5.07;4.20;;;11.90;40.50;;;;;;10445973;28;20233;-75
2024/02/19 20:30:31;;;;;;;7.97;6.53;;;11.80;40.60;;;;;;10438798;28;20229;-79
2024/02/19 20:35:35;;;;;;;8.53;6.83;;;11.80;41.00;;;;;;10443969;28;20291;-78
2024/02/19 20:40:38;;;;;;;8.07;5.27;;;11.80;40.70;;;;;;10440597;28;20712;-78
2024/02/19 20:45:42;;;;;;;6.10;5.50;;;11.80;40.60;;;;;;10444819;28;20244;-78
2024/02/19 20:50:46;;;;;;;6.70;4.63;;;11.80;40.70;;;;;;10435005;28;20230;-78
2024/02/19 20:55:49;;;;;;;7.17;6.50;;;11.70;40.30;;;;;;10442342;28;20246;-78
2024/02/19 21:00:53;;;;;;;6.67;5.30;;;11.70;40.40;;;;;;10442780;28;20743;-78
2024/02/19 21:05:57;;;;;;;7.33;4.50;;;11.70;40.60;;;;;;10441031;28;20635;-77
2024/02/19 21:11:02;;;;;;;4.20;3.80;;;11.60;40.40;;;;;;10437620;28;20592;-77
2024/02/19 21:16:08;;;;;;;5.03;3.07;;;11.50;40.40;;;;;;10441538;28;20233;-77
2024/02/19 21:21:12;;;;;;;5.47;3.40;;;11.50;40.70;;;;;;10436202;28;20217;-77
2024/02/19 21:26:30;;;;;;;7.87;4.20;;;11.40;40.50;;;;;;10441744;28;20236;-77
2024/02/19 21:31:35;;;;;;;5.00;3.90;;;11.40;40.90;;;;;;10440498;28;20279;-77
2024/02/19 21:36:38;;;;;;;4.37;3.47;;;11.50;41.00;;;;;;10442324;28;20275;-77
2024/02/19 21:41:42;;;;;;;5.97;4.10;;;11.50;41.00;;;;;;10441455;28;20238;-77
2024/02/19 21:46:46;;;;;;;5.53;4.43;;;11.50;40.90;;;;;;10441257;28;20249;-77
2024/02/19 21:51:49;;;;;;;5.40;4.10;;;11.50;41.10;;;;;;10436712;28;20241;-77
2024/02/19 21:56:52;;;;;;;4.73;3.93;;;11.60;40.90;;;;;;10444423;28;20314;-77
2024/02/19 22:01:58;;;;;;;6.50;3.60;;;11.60;40.90;;;;;;10439846;28;20328;-77
2024/02/19 22:07:01;;;;;;;4.80;3.00;;;11.60;41.00;;;;;;10440823;28;20252;-77
2024/02/19 22:12:06;;;;;;;5.10;3.23;;;11.60;40.80;;;;;;10438250;28;20220;-77
2024/02/19 22:17:10;;;;;;;4.40;2.93;;;11.70;40.90;;;;;;10438990;28;20323;-77
2024/02/19 22:22:14;;;;;;;5.03;2.70;;;11.70;41.00;;;;;;10438390;28;20267;-77
2024/02/19 22:27:17;;;;;;;4.20;2.83;;;11.70;41.00;;;;;;10437955;28;20233;-77
2024/02/19 22:32:22;;;;;;;4.67;2.53;;;11.60;41.30;;;;;;10441671;28;20260;-77
2024/02/19 22:37:26;;;;;;;4.40;2.50;;;11.60;41.30;;;;;;10438535;28;20359;-77
2024/02/19 22:42:30;;;;;;;2.60;2.20;;;11.60;41.30;;;;;;10439178;28;20225;-77
2024/02/19 22:47:34;;;;;;;4.53;2.33;;;11.60;41.30;;;;;;10437219;28;20221;-77
2024/02/19 22:52:38;;;;;;;3.53;2.20;;;11.50;41.50;;;;;;10440819;28;20221;-77
2024/02/19 22:57:45;;;;;;;3.23;2.30;;;11.60;41.30;;;;;;10435607;28;20221;-77
2024/02/19 23:02:50;;;;;;;2.40;2.20;;;11.60;41.30;;;;;;10441032;28;20245;-77
2024/02/19 23:07:54;;;;;;;4.27;2.73;;;11.60;41.60;;;;;;10439782;28;20231;-77
2024/02/19 23:12:57;;;;;;;4.97;2.83;;;11.70;41.40;;;;;;10438107;28;20805;-77
2024/02/19 23:18:02;;;;;;;3.47;2.63;;;11.70;41.40;;;;;;10434738;28;20275;-77
2024/02/19 23:23:06;;;;;;;5.10;2.90;;;11.60;41.80;;;;;;10434357;28;20277;-77
2024/02/19 23:28:09;;;;;;;3.17;2.87;;;11.60;41.40;;;;;;10442957;28;20235;-77
2024/02/19 23:33:14;;;;;;;5.07;2.80;;;11.50;41.50;;;;;;10442522;28;20226;-77
2024/02/19 23:38:19;;;;;;;5.90;3.00;;;11.60;42.00;;;;;;10443261;28;20224;-77
2024/02/19 23:43:22;;;;;;;5.60;2.90;;;11.50;41.90;;;;;;10443551;28;20235;-77
2024/02/19 23:48:27;;;;;;;4.93;2.87;;;11.40;41.70;;;;;;10440144;28;20253;-77
2024/02/19 23:53:30;;;;;;;4.20;2.70;;;11.40;42.20;;;;;;10439877;28;20231;-77
2024/02/19 23:58:34;;;;;;;4.13;2.87;;;11.40;42.00;;;;;;10442690;28;20233;-78
